createdAt,value
2017-07-10T00:00:21.803Z,0
2017-07-10T00:01:22.493Z,0
2017-07-10T00:02:23.177Z,0
2017-07-10T00:03:23.876Z,0
2017-07-10T00:04:24.566Z,0
2017-07-10T00:05:25.505Z,0
2017-07-10T00:06:26.192Z,0
2017-07-10T00:07:26.893Z,0
2017-07-10T00:08:27.583Z,0
2017-07-10T00:09:28.274Z,0
2017-07-10T00:10:29.217Z,0
2017-07-10T00:11:29.913Z,0
2017-07-10T00:12:30.602Z,0
2017-07-10T00:13:31.293Z,0
2017-07-10T00:14:31.988Z,0
2017-07-10T00:15:32.930Z,0
2017-07-10T00:16:33.619Z,0
2017-07-10T00:17:34.311Z,0
2017-07-10T00:18:35.001Z,0
2017-07-10T00:19:35.691Z,0
2017-07-10T00:20:36.633Z,0
2017-07-10T00:21:37.325Z,0
2017-07-10T00:22:38.017Z,0
2017-07-10T00:23:38.708Z,0
2017-07-10T00:24:39.400Z,0
2017-07-10T00:25:40.339Z,0
2017-07-10T00:26:41.028Z,0
2017-07-10T00:27:41.718Z,0
2017-07-10T00:28:42.407Z,0
2017-07-10T00:29:43.098Z,0
2017-07-10T00:30:44.043Z,0
2017-07-10T00:31:44.736Z,0
2017-07-10T00:32:45.427Z,0
2017-07-10T00:33:46.123Z,0
2017-07-10T00:34:46.809Z,0
2017-07-10T00:35:47.751Z,0
2017-07-10T00:36:48.436Z,0
2017-07-10T00:37:49.136Z,0
2017-07-10T00:38:49.829Z,0
2017-07-10T00:39:50.520Z,0
2017-07-10T00:40:51.461Z,0
2017-07-10T00:41:52.152Z,0
2017-07-10T00:42:52.839Z,0
2017-07-10T00:43:53.525Z,0
2017-07-10T00:44:54.214Z,0
2017-07-10T00:45:55.152Z,0
2017-07-10T00:46:55.841Z,0
2017-07-10T00:47:56.530Z,0
2017-07-10T00:48:57.221Z,0
2017-07-10T00:49:57.907Z,0
2017-07-10T00:50:58.844Z,0
2017-07-10T00:51:59.534Z,0
2017-07-10T00:53:00.221Z,0
2017-07-10T00:54:00.916Z,0
2017-07-10T00:55:01.608Z,0
2017-07-10T00:56:02.549Z,0
2017-07-10T00:57:03.236Z,0
2017-07-10T00:58:03.922Z,0
2017-07-10T00:59:04.608Z,0
2017-07-10T01:00:05.300Z,0
2017-07-10T01:01:06.238Z,0
2017-07-10T01:02:06.929Z,0
2017-07-10T01:03:07.618Z,0
2017-07-10T01:04:08.306Z,0
2017-07-10T01:05:09.002Z,0
2017-07-10T01:06:09.940Z,0
2017-07-10T01:07:10.640Z,0
2017-07-10T01:08:11.336Z,0
2017-07-10T01:09:12.028Z,0
2017-07-10T01:10:12.719Z,0
2017-07-10T01:11:13.663Z,0
2017-07-10T01:12:14.359Z,0
2017-07-10T01:13:15.055Z,0
2017-07-10T01:14:15.741Z,0
2017-07-10T01:15:16.435Z,0
2017-07-10T01:16:17.123Z,0
2017-07-10T01:17:17.864Z,0
2017-07-10T01:18:18.498Z,0
2017-07-10T01:19:19.191Z,0
2017-07-10T01:20:19.893Z,0
2017-07-10T01:21:20.835Z,0
2017-07-10T01:22:21.527Z,0
2017-07-10T01:23:22.213Z,0
2017-07-10T01:24:22.902Z,0
2017-07-10T01:25:23.591Z,0
2017-07-10T01:26:24.533Z,0
2017-07-10T01:27:25.232Z,0
2017-07-10T01:28:25.922Z,0
2017-07-10T01:29:26.609Z,0
2017-07-10T01:30:27.302Z,0
2017-07-10T01:31:28.245Z,0
2017-07-10T01:32:28.936Z,0
2017-07-10T01:33:29.628Z,0
2017-07-10T01:34:30.320Z,0
2017-07-10T01:35:31.008Z,0
2017-07-10T01:36:31.951Z,0
2017-07-10T01:37:32.639Z,0
2017-07-10T01:38:33.328Z,0
2017-07-10T01:39:34.016Z,0
2017-07-10T01:40:34.709Z,0
2017-07-10T01:41:35.397Z,0
2017-07-10T01:42:36.085Z,0
2017-07-10T01:43:36.771Z,0
2017-07-10T01:44:37.464Z,0
2017-07-10T01:45:38.153Z,0
2017-07-10T01:46:39.090Z,0
2017-07-10T01:47:39.777Z,0
2017-07-10T01:48:40.464Z,0
2017-07-10T01:49:41.155Z,0
2017-07-10T01:50:41.847Z,0
2017-07-10T01:51:42.540Z,0
2017-07-10T01:52:43.233Z,0
2017-07-10T01:53:43.920Z,0
2017-07-10T01:54:44.616Z,0
2017-07-10T01:55:45.309Z,0
2017-07-10T01:56:46.253Z,0
2017-07-10T01:57:46.940Z,0
2017-07-10T01:58:47.630Z,0
2017-07-10T01:59:48.321Z,0
2017-07-10T02:00:49.010Z,0
2017-07-10T02:01:49.949Z,0
2017-07-10T02:02:50.640Z,0
2017-07-10T02:03:51.331Z,0
2017-07-10T02:04:52.026Z,0
2017-07-10T02:05:52.719Z,0
2017-07-10T02:06:53.651Z,0
2017-07-10T02:07:54.344Z,0
2017-07-10T02:08:55.033Z,0
2017-07-10T02:09:55.723Z,0
2017-07-10T02:10:56.409Z,0
2017-07-10T02:11:57.351Z,0
2017-07-10T02:12:58.039Z,0
2017-07-10T02:13:58.730Z,0
2017-07-10T02:14:59.426Z,0
2017-07-10T02:16:00.115Z,0
2017-07-10T02:17:01.061Z,0
2017-07-10T02:18:01.749Z,0
2017-07-10T02:19:02.439Z,0
2017-07-10T02:20:03.128Z,0
2017-07-10T02:21:03.816Z,0
2017-07-10T02:22:04.761Z,0
2017-07-10T02:23:05.455Z,0
2017-07-10T02:24:06.150Z,0
2017-07-10T02:25:06.841Z,0
2017-07-10T02:26:07.527Z,0
2017-07-10T02:27:08.468Z,0
2017-07-10T02:28:09.167Z,0
2017-07-10T02:29:09.859Z,0
2017-07-10T02:30:10.550Z,0
2017-07-10T02:31:11.241Z,0
2017-07-10T02:32:12.182Z,0
2017-07-10T02:33:12.876Z,0
2017-07-10T02:34:13.565Z,0
2017-07-10T02:35:14.253Z,0
2017-07-10T02:36:14.941Z,0
2017-07-10T02:37:15.885Z,0
2017-07-10T02:38:16.581Z,0
2017-07-10T02:39:17.268Z,0
2017-07-10T02:40:17.958Z,0
2017-07-10T02:41:18.652Z,0
2017-07-10T02:42:19.593Z,0
2017-07-10T02:43:20.286Z,0
2017-07-10T02:44:20.978Z,0
2017-07-10T02:45:21.664Z,0
2017-07-10T02:46:22.351Z,0
2017-07-10T02:47:23.041Z,0
2017-07-10T02:48:23.727Z,0
2017-07-10T02:49:24.416Z,0
2017-07-10T02:50:25.101Z,0
2017-07-10T02:51:25.788Z,0
2017-07-10T02:52:26.734Z,0
2017-07-10T02:53:27.425Z,0
2017-07-10T02:54:28.119Z,0
2017-07-10T02:55:28.812Z,0
2017-07-10T02:56:29.505Z,0
2017-07-10T02:57:30.440Z,0
2017-07-10T02:58:31.133Z,0
2017-07-10T02:59:31.826Z,0
2017-07-10T03:00:32.516Z,0
2017-07-10T03:01:33.213Z,0
2017-07-10T03:02:34.151Z,4
2017-07-10T03:03:34.838Z,4
2017-07-10T03:04:35.535Z,4
2017-07-10T03:05:36.224Z,0
2017-07-10T03:06:36.920Z,4
2017-07-10T03:07:37.859Z,4
2017-07-10T03:08:38.551Z,4
2017-07-10T03:09:39.244Z,4
2017-07-10T03:10:39.939Z,8
2017-07-10T03:11:40.631Z,4
2017-07-10T03:12:41.571Z,8
2017-07-10T03:13:42.259Z,8
2017-07-10T03:14:42.953Z,8
2017-07-10T03:15:43.644Z,12
2017-07-10T03:16:44.329Z,8
2017-07-10T03:17:45.270Z,12
2017-07-10T03:18:45.959Z,16
2017-07-10T03:19:46.654Z,16
2017-07-10T03:20:47.348Z,16
2017-07-10T03:21:48.040Z,16
2017-07-10T03:22:48.984Z,20
2017-07-10T03:23:49.683Z,20
2017-07-10T03:24:50.371Z,20
2017-07-10T03:25:51.059Z,24
2017-07-10T03:26:51.749Z,28
2017-07-10T03:27:52.689Z,24
2017-07-10T03:28:53.379Z,24
2017-07-10T03:29:54.066Z,20
2017-07-10T03:30:54.761Z,24
2017-07-10T03:31:55.457Z,24
2017-07-10T03:32:56.148Z,24
2017-07-10T03:33:56.842Z,24
2017-07-10T03:34:57.533Z,24
2017-07-10T03:35:58.221Z,28
2017-07-10T03:36:58.915Z,28
2017-07-10T03:37:59.856Z,28
2017-07-10T03:39:00.548Z,32
2017-07-10T03:40:01.241Z,36
2017-07-10T03:41:01.930Z,36
2017-07-10T03:42:02.623Z,44
2017-07-10T03:43:03.565Z,44
2017-07-10T03:44:04.258Z,44
2017-07-10T03:45:04.949Z,44
2017-07-10T03:46:05.640Z,44
2017-07-10T03:47:06.337Z,44
2017-07-10T03:48:07.278Z,48
2017-07-10T03:49:07.965Z,48
2017-07-10T03:50:08.651Z,48
2017-07-10T03:51:09.343Z,48
2017-07-10T03:52:10.034Z,48
2017-07-10T03:53:10.975Z,48
2017-07-10T03:54:11.673Z,48
2017-07-10T03:55:12.363Z,52
2017-07-10T03:56:13.054Z,56
2017-07-10T03:57:13.743Z,56
2017-07-10T03:58:14.677Z,60
2017-07-10T03:59:15.364Z,64
2017-07-10T04:00:16.057Z,68
2017-07-10T04:01:16.748Z,68
2017-07-10T04:02:17.441Z,72
2017-07-10T04:03:18.382Z,76
2017-07-10T04:04:19.074Z,84
2017-07-10T04:05:19.763Z,92
2017-07-10T04:06:20.456Z,96
2017-07-10T04:07:21.143Z,100
2017-07-10T04:08:22.083Z,100
2017-07-10T04:09:22.775Z,108
2017-07-10T04:10:23.468Z,120
2017-07-10T04:11:24.161Z,124
2017-07-10T04:12:24.851Z,132
2017-07-10T04:13:25.794Z,144
2017-07-10T04:14:26.484Z,160
2017-07-10T04:15:27.169Z,164
2017-07-10T04:16:27.856Z,172
2017-07-10T04:17:28.584Z,176
2017-07-10T04:18:29.491Z,180
2017-07-10T04:19:30.178Z,184
2017-07-10T04:20:30.867Z,176
2017-07-10T04:21:31.558Z,184
2017-07-10T04:22:32.248Z,180
2017-07-10T04:23:33.193Z,184
2017-07-10T04:24:33.887Z,188
2017-07-10T04:25:34.578Z,216
2017-07-10T04:26:35.271Z,232
2017-07-10T04:27:35.960Z,256
2017-07-10T04:28:36.903Z,288
2017-07-10T04:29:37.594Z,328
2017-07-10T04:30:38.284Z,380
2017-07-10T04:31:38.978Z,532
2017-07-10T04:32:39.670Z,556
2017-07-10T04:33:40.613Z,612
2017-07-10T04:34:41.321Z,596
2017-07-10T04:35:42.015Z,656
2017-07-10T04:36:42.707Z,728
2017-07-10T04:37:43.402Z,712
2017-07-10T04:38:44.349Z,744
2017-07-10T04:39:45.045Z,772
2017-07-10T04:40:45.735Z,732
2017-07-10T04:41:46.424Z,740
2017-07-10T04:42:47.118Z,772
2017-07-10T04:43:48.061Z,780
2017-07-10T04:44:48.755Z,820
2017-07-10T04:45:49.445Z,860
2017-07-10T04:46:50.135Z,904
2017-07-10T04:47:50.827Z,952
2017-07-10T04:48:51.768Z,1020
2017-07-10T04:49:52.460Z,1088
2017-07-10T04:50:53.154Z,1140
2017-07-10T04:51:53.847Z,1164
2017-07-10T04:52:54.541Z,1204
2017-07-10T04:53:55.488Z,1280
2017-07-10T04:54:56.186Z,1336
2017-07-10T04:55:56.877Z,1328
2017-07-10T04:56:57.572Z,1296
2017-07-10T04:57:58.267Z,1224
2017-07-10T04:58:59.211Z,1108
2017-07-10T04:59:59.902Z,1020
2017-07-10T05:01:00.589Z,960
2017-07-10T05:02:01.280Z,940
2017-07-10T05:03:01.974Z,996
2017-07-10T05:04:02.916Z,1112
2017-07-10T05:05:03.611Z,1244
2017-07-10T05:06:04.306Z,1372
2017-07-10T05:07:04.996Z,1528
2017-07-10T05:08:05.694Z,1644
2017-07-10T05:09:06.641Z,1844
2017-07-10T05:10:07.334Z,1848
2017-07-10T05:11:08.030Z,2052
2017-07-10T05:12:08.724Z,2120
2017-07-10T05:13:09.417Z,2200
2017-07-10T05:14:10.367Z,2308
2017-07-10T05:15:11.057Z,2228
2017-07-10T05:16:11.750Z,2104
2017-07-10T05:17:12.454Z,2060
2017-07-10T05:18:13.147Z,2028
2017-07-10T05:19:13.843Z,1964
2017-07-10T05:20:14.536Z,1860
2017-07-10T05:21:15.234Z,1744
2017-07-10T05:22:15.924Z,1648
2017-07-10T05:23:16.614Z,1548
2017-07-10T05:24:17.560Z,1496
2017-07-10T05:25:18.254Z,1436
2017-07-10T05:26:18.952Z,1432
2017-07-10T05:27:19.655Z,1388
2017-07-10T05:28:20.351Z,1328
2017-07-10T05:29:21.294Z,1288
2017-07-10T05:30:21.990Z,1284
2017-07-10T05:31:22.686Z,1236
2017-07-10T05:32:23.382Z,1208
2017-07-10T05:33:24.076Z,1200
2017-07-10T05:34:25.018Z,1240
2017-07-10T05:35:25.705Z,1236
2017-07-10T05:36:26.401Z,1224
2017-07-10T05:37:27.096Z,1116
2017-07-10T05:38:27.791Z,996
2017-07-10T05:39:28.732Z,920
2017-07-10T05:40:29.424Z,876
2017-07-10T05:41:30.117Z,832
2017-07-10T05:42:30.815Z,820
2017-07-10T05:43:31.510Z,780
2017-07-10T05:44:32.452Z,740
2017-07-10T05:45:33.146Z,712
2017-07-10T05:46:33.838Z,688
2017-07-10T05:47:34.529Z,676
2017-07-10T05:48:35.220Z,688
2017-07-10T05:49:36.164Z,692
2017-07-10T05:50:36.862Z,708
2017-07-10T05:51:37.552Z,696
2017-07-10T05:52:38.245Z,660
2017-07-10T05:53:38.936Z,628
2017-07-10T05:54:39.879Z,592
2017-07-10T05:55:40.572Z,544
2017-07-10T05:56:41.264Z,524
2017-07-10T05:57:41.954Z,540
2017-07-10T05:58:42.659Z,568
2017-07-10T05:59:43.599Z,608
2017-07-10T06:00:44.290Z,668
2017-07-10T06:01:44.981Z,728
2017-07-10T06:02:45.678Z,800
2017-07-10T06:03:46.375Z,916
2017-07-10T06:04:47.318Z,1068
2017-07-10T06:05:48.011Z,1272
2017-07-10T06:06:48.704Z,1520
2017-07-10T06:07:49.396Z,1792
2017-07-10T06:08:50.089Z,1924
2017-07-10T06:09:50.787Z,1896
2017-07-10T06:10:51.479Z,1812
2017-07-10T06:11:52.172Z,1716
2017-07-10T06:12:52.861Z,1644
2017-07-10T06:13:53.553Z,1612
2017-07-10T06:14:54.500Z,1604
2017-07-10T06:15:55.191Z,1604
2017-07-10T06:16:55.889Z,1600
2017-07-10T06:17:56.582Z,1616
2017-07-10T06:18:57.279Z,1704
2017-07-10T06:19:58.224Z,1836
2017-07-10T06:20:58.915Z,1936
2017-07-10T06:21:59.608Z,2032
2017-07-10T06:23:00.301Z,2148
2017-07-10T06:24:01.005Z,2252
2017-07-10T06:25:01.954Z,2304
2017-07-10T06:26:02.648Z,2312
2017-07-10T06:27:03.343Z,2252
2017-07-10T06:28:03.976Z,2100
2017-07-10T06:29:04.744Z,1940
2017-07-10T06:30:05.681Z,1828
2017-07-10T06:31:06.379Z,1756
2017-07-10T06:32:07.070Z,1744
2017-07-10T06:33:07.764Z,1784
2017-07-10T06:34:08.466Z,1816
2017-07-10T06:35:09.411Z,1864
2017-07-10T06:36:10.114Z,1884
2017-07-10T06:37:10.808Z,1868
2017-07-10T06:38:11.502Z,1820
2017-07-10T06:39:12.201Z,1756
2017-07-10T06:40:13.146Z,1672
2017-07-10T06:41:13.845Z,1580
2017-07-10T06:42:14.538Z,1492
2017-07-10T06:43:15.237Z,1468
2017-07-10T06:44:15.932Z,1492
2017-07-10T06:45:16.878Z,1544
2017-07-10T06:46:17.579Z,1616
2017-07-10T06:47:18.275Z,1676
2017-07-10T06:48:18.970Z,1716
2017-07-10T06:49:19.666Z,1724
2017-07-10T06:50:20.604Z,1688
2017-07-10T06:51:21.296Z,1604
2017-07-10T06:52:21.995Z,1528
2017-07-10T06:53:22.692Z,1452
2017-07-10T06:54:23.394Z,1372
2017-07-10T06:55:24.339Z,1296
2017-07-10T06:56:25.034Z,1248
2017-07-10T06:57:25.725Z,1212
2017-07-10T06:58:26.420Z,1172
2017-07-10T06:59:27.116Z,1108
2017-07-10T07:00:28.060Z,1092
2017-07-10T07:01:28.753Z,1068
2017-07-10T07:02:29.447Z,1044
2017-07-10T07:03:30.145Z,1024
2017-07-10T07:04:30.840Z,1016
2017-07-10T07:05:31.789Z,1032
2017-07-10T07:06:32.485Z,1060
2017-07-10T07:07:33.176Z,1064
2017-07-10T07:08:33.869Z,1048
2017-07-10T07:09:34.565Z,1060
2017-07-10T07:10:35.510Z,1128
2017-07-10T07:11:36.211Z,1248
2017-07-10T07:12:36.910Z,1452
2017-07-10T07:13:37.606Z,1668
2017-07-10T07:14:38.306Z,1748
2017-07-10T07:15:38.999Z,1880
2017-07-10T07:16:39.697Z,1900
2017-07-10T07:17:40.391Z,1904
2017-07-10T07:18:41.086Z,1964
2017-07-10T07:19:41.779Z,2040
2017-07-10T07:20:42.720Z,2172
2017-07-10T07:21:43.421Z,2264
2017-07-10T07:22:44.124Z,2196
2017-07-10T07:23:44.812Z,2064
2017-07-10T07:24:45.505Z,1920
2017-07-10T07:25:46.450Z,1948
2017-07-10T07:26:47.151Z,2012
2017-07-10T07:27:47.843Z,2184
2017-07-10T07:28:48.537Z,2360
2017-07-10T07:29:49.228Z,2564
2017-07-10T07:30:50.182Z,2684
2017-07-10T07:31:50.884Z,2716
2017-07-10T07:32:51.579Z,2696
2017-07-10T07:33:52.272Z,2812
2017-07-10T07:34:52.965Z,2988
2017-07-10T07:35:53.910Z,3108
2017-07-10T07:36:54.611Z,3116
2017-07-10T07:37:55.308Z,3012
2017-07-10T07:38:56.001Z,2988
2017-07-10T07:39:56.697Z,3124
2017-07-10T07:40:57.643Z,3152
2017-07-10T07:41:58.338Z,3148
2017-07-10T07:42:59.044Z,3204
2017-07-10T07:43:59.728Z,3328
2017-07-10T07:45:00.422Z,3452
2017-07-10T07:46:01.371Z,3472
2017-07-10T07:47:02.074Z,3528
2017-07-10T07:48:02.783Z,3640
2017-07-10T07:49:03.477Z,3608
2017-07-10T07:50:04.173Z,3732
2017-07-10T07:51:05.123Z,3940
2017-07-10T07:52:05.818Z,3900
2017-07-10T07:53:06.512Z,3808
2017-07-10T07:54:07.208Z,3856
2017-07-10T07:55:07.910Z,3852
2017-07-10T07:56:08.856Z,3568
2017-07-10T07:57:09.553Z,3452
2017-07-10T07:58:10.248Z,3464
2017-07-10T07:59:10.942Z,3684
2017-07-10T08:00:11.634Z,3844
2017-07-10T08:01:12.331Z,3340
2017-07-10T08:02:13.025Z,2864
2017-07-10T08:03:13.724Z,3228
2017-07-10T08:04:14.420Z,3392
2017-07-10T08:05:15.111Z,3768
2017-07-10T08:06:16.055Z,4468
2017-07-10T08:07:16.747Z,5384
2017-07-10T08:08:17.439Z,6036
2017-07-10T08:09:18.136Z,6204
2017-07-10T08:10:18.835Z,6512
2017-07-10T08:11:19.530Z,6396
2017-07-10T08:12:20.228Z,6636
2017-07-10T08:13:20.926Z,6524
2017-07-10T08:14:21.618Z,6752
2017-07-10T08:15:22.311Z,6740
2017-07-10T08:16:23.252Z,6628
2017-07-10T08:17:23.945Z,6508
2017-07-10T08:18:24.641Z,6176
2017-07-10T08:19:25.346Z,5864
2017-07-10T08:20:26.037Z,5640
2017-07-10T08:21:26.987Z,5328
2017-07-10T08:22:27.683Z,5180
2017-07-10T08:23:28.374Z,5204
2017-07-10T08:24:29.069Z,5388
2017-07-10T08:25:29.765Z,5460
2017-07-10T08:26:30.706Z,5376
2017-07-10T08:27:31.410Z,5188
2017-07-10T08:28:32.106Z,4932
2017-07-10T08:29:32.803Z,4556
2017-07-10T08:30:33.497Z,4244
2017-07-10T08:31:34.444Z,3888
2017-07-10T08:32:35.140Z,3512
2017-07-10T08:33:35.836Z,3260
2017-07-10T08:34:36.535Z,3132
2017-07-10T08:35:37.230Z,3108
2017-07-10T08:36:38.173Z,3148
2017-07-10T08:37:38.867Z,3220
2017-07-10T08:38:39.561Z,3388
2017-07-10T08:39:40.258Z,3784
2017-07-10T08:40:40.951Z,4348
2017-07-10T08:41:41.897Z,4764
2017-07-10T08:42:42.592Z,5056
2017-07-10T08:43:43.289Z,5364
2017-07-10T08:44:43.992Z,5724
2017-07-10T08:45:44.937Z,6052
2017-07-10T08:46:45.884Z,6272
2017-07-10T08:47:46.582Z,6088
2017-07-10T08:48:47.273Z,5500
2017-07-10T08:49:47.970Z,4864
2017-07-10T08:50:48.664Z,4520
2017-07-10T08:51:49.353Z,4124
2017-07-10T08:52:50.044Z,3964
2017-07-10T08:53:50.737Z,3936
2017-07-10T08:54:51.430Z,3844
2017-07-10T08:55:52.125Z,4156
2017-07-10T08:56:53.073Z,5112
2017-07-10T08:57:53.769Z,5416
2017-07-10T08:58:54.466Z,5604
2017-07-10T08:59:55.162Z,6044
2017-07-10T09:00:55.862Z,6692
2017-07-10T09:01:56.806Z,6744
2017-07-10T09:02:57.506Z,7252
2017-07-10T09:03:58.202Z,7704
2017-07-10T09:04:58.898Z,8040
2017-07-10T09:05:59.593Z,7772
2017-07-10T09:07:00.537Z,8304
2017-07-10T09:08:01.234Z,8708
2017-07-10T09:09:01.925Z,8652
2017-07-10T09:10:02.627Z,8800
2017-07-10T09:11:03.323Z,9268
2017-07-10T09:12:04.267Z,8520
2017-07-10T09:13:04.963Z,7720
2017-07-10T09:14:05.668Z,7232
2017-07-10T09:15:06.365Z,7916
2017-07-10T09:16:07.064Z,7748
2017-07-10T09:17:08.013Z,7712
2017-07-10T09:18:08.704Z,7704
2017-07-10T09:19:09.399Z,7868
2017-07-10T09:20:10.098Z,7924
2017-07-10T09:21:10.791Z,7504
2017-07-10T09:22:11.742Z,6988
2017-07-10T09:23:12.434Z,6536
2017-07-10T09:24:13.137Z,6256
2017-07-10T09:25:13.831Z,6008
2017-07-10T09:26:14.534Z,6120
2017-07-10T09:27:15.480Z,5808
2017-07-10T09:28:16.173Z,6220
2017-07-10T09:29:16.871Z,6248
2017-07-10T09:30:17.565Z,6060
2017-07-10T09:31:18.265Z,5548
2017-07-10T09:32:19.012Z,4672
2017-07-10T09:33:19.703Z,4260
2017-07-10T09:34:20.396Z,4300
2017-07-10T09:35:21.094Z,3984
2017-07-10T09:36:21.713Z,4700
2017-07-10T09:37:22.718Z,5684
2017-07-10T09:38:23.414Z,5768
2017-07-10T09:39:24.111Z,5088
2017-07-10T09:40:24.804Z,4568
2017-07-10T09:41:25.501Z,3460
2017-07-10T09:42:26.446Z,3816
2017-07-10T09:43:27.141Z,5248
2017-07-10T09:44:27.842Z,5792
2017-07-10T09:45:28.535Z,7180
2017-07-10T09:46:29.227Z,6936
2017-07-10T09:47:30.175Z,5636
2017-07-10T09:48:30.882Z,6332
2017-07-10T09:49:31.580Z,6892
2017-07-10T09:50:32.276Z,7356
2017-07-10T09:51:32.979Z,6080
2017-07-10T09:52:33.930Z,5712
2017-07-10T09:53:34.625Z,5140
2017-07-10T09:54:35.341Z,5368
2017-07-10T09:55:36.037Z,5868
2017-07-10T09:56:36.744Z,5216
2017-07-10T09:57:37.686Z,5236
2017-07-10T09:58:38.389Z,5560
2017-07-10T09:59:39.081Z,6456
2017-07-10T10:00:39.782Z,7244
2017-07-10T10:01:40.476Z,7964
2017-07-10T10:02:41.773Z,8164
2017-07-10T10:03:42.467Z,8036
2017-07-10T10:04:43.168Z,6120
2017-07-10T10:05:43.868Z,5736
2017-07-10T10:06:44.577Z,5892
2017-07-10T10:07:45.525Z,6680
2017-07-10T10:08:46.225Z,6300
2017-07-10T10:09:46.927Z,5460
2017-07-10T10:10:47.624Z,5440
2017-07-10T10:11:48.328Z,5108
2017-07-10T10:12:49.271Z,5628
2017-07-10T10:13:49.965Z,7072
2017-07-10T10:14:50.655Z,7648
2017-07-10T10:15:51.349Z,8160
2017-07-10T10:16:52.050Z,8008
2017-07-10T10:17:53.000Z,5420
2017-07-10T10:18:53.694Z,5088
2017-07-10T10:19:54.397Z,4084
2017-07-10T10:20:55.090Z,4752
2017-07-10T10:21:55.789Z,4348
2017-07-10T10:22:56.480Z,4640
2017-07-10T10:23:57.173Z,5844
2017-07-10T10:24:57.872Z,6984
2017-07-10T10:25:58.575Z,7844
2017-07-10T10:26:59.271Z,7288
2017-07-10T10:28:00.219Z,5336
2017-07-10T10:29:00.916Z,6724
2017-07-10T10:30:01.611Z,8856
2017-07-10T10:31:02.306Z,7920
2017-07-10T10:32:03.013Z,8576
2017-07-10T10:33:03.958Z,8868
2017-07-10T10:34:04.651Z,8976
2017-07-10T10:35:05.367Z,9048
2017-07-10T10:36:06.062Z,7060
2017-07-10T10:37:06.768Z,6968
2017-07-10T10:38:07.715Z,8388
2017-07-10T10:39:08.411Z,6824
2017-07-10T10:40:09.106Z,6016
2017-07-10T10:41:09.805Z,6132
2017-07-10T10:42:10.500Z,7120
2017-07-10T10:43:11.449Z,8964
2017-07-10T10:44:12.150Z,10624
2017-07-10T10:45:12.843Z,11856
2017-07-10T10:46:13.542Z,12840
2017-07-10T10:47:14.246Z,11616
2017-07-10T10:48:14.947Z,12604
2017-07-10T10:49:15.645Z,13036
2017-07-10T10:50:16.343Z,11136
2017-07-10T10:51:17.047Z,9968
2017-07-10T10:52:17.742Z,11820
2017-07-10T10:53:18.689Z,13024
2017-07-10T10:54:19.396Z,13120
2017-07-10T10:55:20.100Z,12848
2017-07-10T10:56:20.804Z,13224
2017-07-10T10:57:21.507Z,12184
2017-07-10T10:58:22.505Z,13792
2017-07-10T10:59:23.202Z,13336
2017-07-10T11:00:23.899Z,10680
2017-07-10T11:01:24.598Z,9976
2017-07-10T11:02:25.302Z,9460
2017-07-10T11:03:26.254Z,9792
2017-07-10T11:04:26.949Z,7840
2017-07-10T11:05:27.652Z,8852
2017-07-10T11:06:28.347Z,12224
2017-07-10T11:07:29.046Z,9740
2017-07-10T11:08:30.003Z,9348
2017-07-10T11:09:30.706Z,10052
2017-07-10T11:10:31.408Z,11936
2017-07-10T11:11:32.109Z,10552
2017-07-10T11:12:32.807Z,11824
2017-07-10T11:13:33.766Z,9716
2017-07-10T11:14:34.460Z,10392
2017-07-10T11:15:35.158Z,11872
2017-07-10T11:16:35.859Z,11548
2017-07-10T11:17:36.553Z,9880
2017-07-10T11:18:37.504Z,7984
2017-07-10T11:19:38.202Z,8256
2017-07-10T11:20:38.899Z,9632
2017-07-10T11:21:39.598Z,10712
2017-07-10T11:22:40.295Z,11780
2017-07-10T11:23:41.241Z,9412
2017-07-10T11:24:41.938Z,12272
2017-07-10T11:25:42.643Z,12228
2017-07-10T11:26:43.344Z,10096
2017-07-10T11:27:44.040Z,8332
2017-07-10T11:28:44.985Z,9272
2017-07-10T11:29:45.690Z,10140
2017-07-10T11:30:46.386Z,11272
2017-07-10T11:31:47.086Z,12808
2017-07-10T11:32:47.785Z,13372
2017-07-10T11:33:48.737Z,11412
2017-07-10T11:34:49.441Z,9060
2017-07-10T11:35:50.135Z,6428
2017-07-10T11:36:50.837Z,6848
2017-07-10T11:37:51.538Z,10488
2017-07-10T11:38:52.492Z,9560
2017-07-10T11:39:53.190Z,11240
2017-07-10T11:40:53.894Z,15124
2017-07-10T11:41:54.613Z,14100
2017-07-10T11:42:55.315Z,8184
2017-07-10T11:43:56.278Z,9244
2017-07-10T11:44:56.971Z,8924
2017-07-10T11:45:57.672Z,8764
2017-07-10T11:46:58.381Z,8852
2017-07-10T11:47:59.069Z,8820
2017-07-10T11:49:00.018Z,10068
2017-07-10T11:50:00.730Z,13644
2017-07-10T11:51:01.424Z,11676
2017-07-10T11:52:02.121Z,12032
2017-07-10T11:53:02.825Z,11492
2017-07-10T11:54:03.535Z,11452
2017-07-10T11:55:04.238Z,9896
2017-07-10T11:56:04.932Z,7900
2017-07-10T11:57:05.632Z,8920
2017-07-10T11:58:06.332Z,9160
2017-07-10T11:59:07.032Z,9556
2017-07-10T12:00:07.742Z,9868
2017-07-10T12:01:08.442Z,9724
2017-07-10T12:02:09.205Z,11028
2017-07-10T12:03:09.846Z,11920
2017-07-10T12:04:10.801Z,13896
2017-07-10T12:05:11.502Z,14148
2017-07-10T12:06:12.201Z,13724
2017-07-10T12:07:12.901Z,14372
2017-07-10T12:08:13.605Z,14044
2017-07-10T12:09:14.564Z,13628
2017-07-10T12:10:15.267Z,14300
2017-07-10T12:11:15.970Z,15112
2017-07-10T12:12:16.672Z,15936
2017-07-10T12:13:17.374Z,14212
2017-07-10T12:14:18.341Z,14516
2017-07-10T12:15:19.040Z,12548
2017-07-10T12:16:19.745Z,10996
2017-07-10T12:17:20.452Z,8720
2017-07-10T12:18:21.151Z,8576
2017-07-10T12:19:22.098Z,9116
2017-07-10T12:20:22.797Z,10112
2017-07-10T12:21:23.497Z,8768
2017-07-10T12:22:24.194Z,8916
2017-07-10T12:23:24.891Z,9964
2017-07-10T12:24:25.840Z,10860
2017-07-10T12:25:26.540Z,11300
2017-07-10T12:26:27.248Z,12316
2017-07-10T12:27:27.950Z,12352
2017-07-10T12:28:28.653Z,10572
2017-07-10T12:29:29.611Z,11396
2017-07-10T12:30:30.306Z,9712
2017-07-10T12:31:31.007Z,9248
2017-07-10T12:32:31.707Z,9360
2017-07-10T12:33:32.401Z,7292
2017-07-10T12:34:33.351Z,6604
2017-07-10T12:35:34.050Z,7896
2017-07-10T12:36:34.747Z,8684
2017-07-10T12:37:35.450Z,11232
2017-07-10T12:38:36.145Z,15204
2017-07-10T12:39:36.842Z,12236
2017-07-10T12:40:37.544Z,12632
2017-07-10T12:41:38.250Z,14148
2017-07-10T12:42:38.948Z,12668
2017-07-10T12:43:39.648Z,12408
2017-07-10T12:44:40.507Z,10204
2017-07-10T12:45:41.294Z,8968
2017-07-10T12:46:42.001Z,7104
2017-07-10T12:47:42.691Z,5760
2017-07-10T12:48:43.397Z,5388
2017-07-10T12:49:44.343Z,7748
2017-07-10T12:50:45.042Z,12744
2017-07-10T12:51:45.744Z,15732
2017-07-10T12:52:46.445Z,14260
2017-07-10T12:53:47.145Z,14096
2017-07-10T12:54:48.161Z,15760
2017-07-10T12:55:48.859Z,14904
2017-07-10T12:56:49.554Z,14292
2017-07-10T12:57:50.260Z,14292
2017-07-10T12:58:50.960Z,10444
2017-07-10T12:59:51.910Z,14592
2017-07-10T13:00:52.617Z,16512
2017-07-10T13:01:53.318Z,13352
2017-07-10T13:02:54.024Z,17376
2017-07-10T13:03:54.719Z,15384
2017-07-10T13:04:55.677Z,14788
2017-07-10T13:05:56.390Z,16256
2017-07-10T13:06:57.094Z,15120
2017-07-10T13:07:57.792Z,7452
2017-07-10T13:08:58.504Z,8860
2017-07-10T13:09:59.461Z,8584
2017-07-10T13:11:00.159Z,7492
2017-07-10T13:12:00.855Z,6188
2017-07-10T13:13:01.552Z,5156
2017-07-10T13:14:02.248Z,3724
2017-07-10T13:15:03.197Z,3292
2017-07-10T13:16:03.910Z,4184
2017-07-10T13:17:04.606Z,8044
2017-07-10T13:18:05.302Z,13636
2017-07-10T13:19:06.009Z,11012
2017-07-10T13:20:06.967Z,13752
2017-07-10T13:21:07.661Z,18528
2017-07-10T13:22:08.360Z,11532
2017-07-10T13:23:09.070Z,11228
2017-07-10T13:24:09.777Z,12780
2017-07-10T13:25:10.475Z,12208
2017-07-10T13:26:11.177Z,12440
2017-07-10T13:27:11.878Z,9908
2017-07-10T13:28:12.582Z,8980
2017-07-10T13:29:13.283Z,12472
2017-07-10T13:30:14.235Z,14120
2017-07-10T13:31:14.932Z,16128
2017-07-10T13:32:15.630Z,14680
2017-07-10T13:33:16.331Z,12728
2017-07-10T13:34:17.033Z,11664
2017-07-10T13:35:17.985Z,11568
2017-07-10T13:36:18.681Z,11864
2017-07-10T13:37:19.379Z,11704
2017-07-10T13:38:20.079Z,12256
2017-07-10T13:39:20.777Z,12288
2017-07-10T13:40:21.727Z,11720
2017-07-10T13:41:22.426Z,12136
2017-07-10T13:42:23.128Z,11852
2017-07-10T13:43:23.830Z,12820
2017-07-10T13:44:24.530Z,12164
2017-07-10T13:45:25.478Z,13384
2017-07-10T13:46:26.186Z,14108
2017-07-10T13:47:26.886Z,13180
2017-07-10T13:48:27.590Z,12612
2017-07-10T13:49:28.290Z,12548